sensor_id;sensor_type;location;lat;lon;timestamp;pressure;altitude;pressure_sealevel;temperature;humidity
9335;BME280;4706;41.844;26.082;2022-12-24T00:01:08;100777.03;;;5.28;82.29
9335;BME280;4706;41.844;26.082;2022-12-24T00:03:35;100773.06;;;5.09;82.40
9335;BME280;4706;41.844;26.082;2022-12-24T00:06:08;100775.72;;;5.04;83.61
9335;BME280;4706;41.844;26.082;2022-12-24T00:08:37;100781.53;;;5.13;82.78
9335;BME280;4706;41.844;26.082;2022-12-24T00:11:02;100788.00;;;5.06;83.36
9335;BME280;4706;41.844;26.082;2022-12-24T00:13:27;100787.34;;;4.94;84.46
9335;BME280;4706;41.844;26.082;2022-12-24T00:15:53;100794.22;;;4.97;84.11
9335;BME280;4706;41.844;26.082;2022-12-24T00:18:18;100782.72;;;4.95;83.58
9335;BME280;4706;41.844;26.082;2022-12-24T00:20:46;100791.47;;;4.97;83.37
9335;BME280;4706;41.844;26.082;2022-12-24T00:23:13;100804.38;;;5.06;83.63
9335;BME280;4706;41.844;26.082;2022-12-24T00:25:38;100797.00;;;5.07;83.62
9335;BME280;4706;41.844;26.082;2022-12-24T00:28:04;100786.38;;;5.05;83.74
9335;BME280;4706;41.844;26.082;2022-12-24T00:30:29;100787.09;;;4.96;84.31
9335;BME280;4706;41.844;26.082;2022-12-24T00:32:55;100793.94;;;4.98;84.28
9335;BME280;4706;41.844;26.082;2022-12-24T00:35:20;100796.88;;;4.92;85.41
9335;BME280;4706;41.844;26.082;2022-12-24T00:37:47;100787.53;;;4.82;85.45
9335;BME280;4706;41.844;26.082;2022-12-24T00:40:13;100800.72;;;4.96;84.81
9335;BME280;4706;41.844;26.082;2022-12-24T00:42:38;100799.19;;;5.05;83.79
9335;BME280;4706;41.844;26.082;2022-12-24T00:45:04;100803.53;;;5.06;83.07
9335;BME280;4706;41.844;26.082;2022-12-24T00:47:30;100798.72;;;4.86;84.89
9335;BME280;4706;41.844;26.082;2022-12-24T00:49:55;100789.84;;;4.74;85.97
9335;BME280;4706;41.844;26.082;2022-12-24T00:52:20;100796.47;;;4.78;85.45
9335;BME280;4706;41.844;26.082;2022-12-24T00:54:46;100787.81;;;4.86;85.20
9335;BME280;4706;41.844;26.082;2022-12-24T00:57:11;100787.09;;;4.96;83.42
9335;BME280;4706;41.844;26.082;2022-12-24T00:59:37;100789.16;;;4.83;84.62
9335;BME280;4706;41.844;26.082;2022-12-24T01:02:02;100787.41;;;4.72;85.58
9335;BME280;4706;41.844;26.082;2022-12-24T01:04:28;100782.63;;;4.84;85.08
9335;BME280;4706;41.844;26.082;2022-12-24T01:07:12;100771.41;;;5.08;83.18
9335;BME280;4706;41.844;26.082;2022-12-24T01:09:37;100769.50;;;5.08;83.71
9335;BME280;4706;41.844;26.082;2022-12-24T01:12:03;100771.63;;;5.01;83.19
9335;BME280;4706;41.844;26.082;2022-12-24T01:14:29;100768.75;;;4.86;84.43
9335;BME280;4706;41.844;26.082;2022-12-24T01:16:54;100759.59;;;4.70;85.41
9335;BME280;4706;41.844;26.082;2022-12-24T01:19:19;100758.59;;;4.54;86.54
9335;BME280;4706;41.844;26.082;2022-12-24T01:21:45;100761.09;;;4.56;87.88
9335;BME280;4706;41.844;26.082;2022-12-24T01:24:14;100756.97;;;4.53;87.87
9335;BME280;4706;41.844;26.082;2022-12-24T01:26:41;100764.75;;;4.67;86.94
9335;BME280;4706;41.844;26.082;2022-12-24T01:29:06;100762.69;;;4.79;87.02
9335;BME280;4706;41.844;26.082;2022-12-24T01:31:32;100757.22;;;4.79;87.34
9335;BME280;4706;41.844;26.082;2022-12-24T01:33:57;100766.22;;;4.79;86.88
9335;BME280;4706;41.844;26.082;2022-12-24T01:36:23;100762.19;;;4.82;87.14
9335;BME280;4706;41.844;26.082;2022-12-24T01:38:48;100765.91;;;4.76;87.45
9335;BME280;4706;41.844;26.082;2022-12-24T01:41:16;100756.50;;;4.88;86.66
9335;BME280;4706;41.844;26.082;2022-12-24T01:46:49;100747.41;;;5.10;85.27
9335;BME280;4706;41.844;26.082;2022-12-24T01:49:16;100749.06;;;4.79;87.16
9335;BME280;4706;41.844;26.082;2022-12-24T01:51:45;100747.63;;;4.71;87.99
9335;BME280;4706;41.844;26.082;2022-12-24T01:54:23;100751.13;;;4.67;88.25
9335;BME280;4706;41.844;26.082;2022-12-24T01:57:03;100749.56;;;4.76;88.59
9335;BME280;4706;41.844;26.082;2022-12-24T01:59:29;100754.44;;;4.74;89.12
9335;BME280;4706;41.844;26.082;2022-12-24T02:01:55;100755.50;;;4.68;89.52
9335;BME280;4706;41.844;26.082;2022-12-24T02:06:56;100744.91;;;4.71;89.79
9335;BME280;4706;41.844;26.082;2022-12-24T02:09:22;100758.41;;;4.88;89.23
9335;BME280;4706;41.844;26.082;2022-12-24T02:11:47;100758.72;;;4.92;88.57
9335;BME280;4706;41.844;26.082;2022-12-24T02:14:14;100758.50;;;4.98;87.91
9335;BME280;4706;41.844;26.082;2022-12-24T02:17:03;100755.78;;;4.98;86.53
9335;BME280;4706;41.844;26.082;2022-12-24T02:22:56;100760.63;;;4.91;86.37
9335;BME280;4706;41.844;26.082;2022-12-24T02:28:52;100761.25;;;4.71;86.46
9335;BME280;4706;41.844;26.082;2022-12-24T02:31:43;100753.63;;;4.73;86.77
9335;BME280;4706;41.844;26.082;2022-12-24T02:34:22;100750.84;;;4.68;87.51
9335;BME280;4706;41.844;26.082;2022-12-24T02:37:07;100754.97;;;4.71;87.74
9335;BME280;4706;41.844;26.082;2022-12-24T02:42:18;100757.72;;;4.71;87.67
9335;BME280;4706;41.844;26.082;2022-12-24T02:44:51;100746.06;;;4.53;89.38
9335;BME280;4706;41.844;26.082;2022-12-24T02:47:22;100753.97;;;4.55;89.63
9335;BME280;4706;41.844;26.082;2022-12-24T02:49:48;100756.56;;;4.67;88.88
9335;BME280;4706;41.844;26.082;2022-12-24T02:55:08;100764.44;;;4.63;90.58
9335;BME280;4706;41.844;26.082;2022-12-24T03:00:34;100769.00;;;4.84;90.11
9335;BME280;4706;41.844;26.082;2022-12-24T03:08:46;100761.19;;;4.93;88.23
9335;BME280;4706;41.844;26.082;2022-12-24T03:11:15;100752.75;;;4.95;88.32
9335;BME280;4706;41.844;26.082;2022-12-24T03:13:41;100742.47;;;5.07;86.86
9335;BME280;4706;41.844;26.082;2022-12-24T03:16:11;100752.09;;;5.15;86.81
9335;BME280;4706;41.844;26.082;2022-12-24T03:18:41;100759.94;;;5.06;87.88
9335;BME280;4706;41.844;26.082;2022-12-24T03:21:32;100764.81;;;4.77;89.57
9335;BME280;4706;41.844;26.082;2022-12-24T03:23:59;100778.16;;;4.73;90.60
9335;BME280;4706;41.844;26.082;2022-12-24T03:26:27;100771.94;;;4.78;91.10
9335;BME280;4706;41.844;26.082;2022-12-24T03:28:53;100766.75;;;4.76;90.17
9335;BME280;4706;41.844;26.082;2022-12-24T03:31:19;100768.69;;;4.81;90.26
9335;BME280;4706;41.844;26.082;2022-12-24T03:33:45;100777.25;;;4.90;90.76
9335;BME280;4706;41.844;26.082;2022-12-24T03:36:11;100774.72;;;4.83;90.37
9335;BME280;4706;41.844;26.082;2022-12-24T03:38:37;100777.13;;;4.79;91.28
9335;BME280;4706;41.844;26.082;2022-12-24T03:41:03;100779.84;;;4.79;91.71
9335;BME280;4706;41.844;26.082;2022-12-24T03:43:29;100784.13;;;4.97;90.90
9335;BME280;4706;41.844;26.082;2022-12-24T03:45:54;100781.13;;;4.99;91.29
9335;BME280;4706;41.844;26.082;2022-12-24T03:48:20;100766.03;;;4.86;91.43
9335;BME280;4706;41.844;26.082;2022-12-24T03:50:45;100774.50;;;4.90;92.68
9335;BME280;4706;41.844;26.082;2022-12-24T03:53:11;100770.25;;;5.04;90.61
9335;BME280;4706;41.844;26.082;2022-12-24T03:55:37;100781.16;;;5.04;90.35
9335;BME280;4706;41.844;26.082;2022-12-24T03:58:03;100777.88;;;5.02;90.73
9335;BME280;4706;41.844;26.082;2022-12-24T04:00:29;100783.19;;;5.19;89.65
9335;BME280;4706;41.844;26.082;2022-12-24T04:02:54;100778.16;;;5.00;89.71
9335;BME280;4706;41.844;26.082;2022-12-24T04:05:20;100773.88;;;5.09;90.23
9335;BME280;4706;41.844;26.082;2022-12-24T04:07:46;100775.81;;;5.14;89.04
9335;BME280;4706;41.844;26.082;2022-12-24T04:10:13;100781.44;;;5.02;90.45
9335;BME280;4706;41.844;26.082;2022-12-24T04:12:39;100782.22;;;4.98;90.46
9335;BME280;4706;41.844;26.082;2022-12-24T04:15:05;100777.25;;;4.90;90.41
9335;BME280;4706;41.844;26.082;2022-12-24T04:17:31;100782.63;;;4.84;91.03
9335;BME280;4706;41.844;26.082;2022-12-24T04:19:56;100770.56;;;4.75;90.93
9335;BME280;4706;41.844;26.082;2022-12-24T04:22:22;100782.06;;;4.82;90.72
9335;BME280;4706;41.844;26.082;2022-12-24T04:24:47;100786.84;;;4.70;90.44
9335;BME280;4706;41.844;26.082;2022-12-24T04:27:16;100783.81;;;4.67;92.01
9335;BME280;4706;41.844;26.082;2022-12-24T04:29:42;100791.53;;;4.75;91.96
9335;BME280;4706;41.844;26.082;2022-12-24T04:32:08;100780.88;;;4.73;91.53
9335;BME280;4706;41.844;26.082;2022-12-24T04:34:34;100773.78;;;4.72;90.25
9335;BME280;4706;41.844;26.082;2022-12-24T04:37:00;100780.63;;;4.75;90.69
9335;BME280;4706;41.844;26.082;2022-12-24T04:39:26;100768.03;;;4.69;89.92
9335;BME280;4706;41.844;26.082;2022-12-24T04:41:51;100777.09;;;4.74;88.83
9335;BME280;4706;41.844;26.082;2022-12-24T04:44:17;100774.28;;;4.69;89.47
9335;BME280;4706;41.844;26.082;2022-12-24T04:46:42;100769.88;;;4.63;89.52
9335;BME280;4706;41.844;26.082;2022-12-24T04:49:07;100774.09;;;4.49;91.47
9335;BME280;4706;41.844;26.082;2022-12-24T04:51:33;100776.34;;;4.57;91.20
9335;BME280;4706;41.844;26.082;2022-12-24T04:53:59;100773.66;;;4.62;91.19
9335;BME280;4706;41.844;26.082;2022-12-24T04:56:28;100785.59;;;4.56;91.45
9335;BME280;4706;41.844;26.082;2022-12-24T04:58:54;100769.59;;;4.37;92.48
9335;BME280;4706;41.844;26.082;2022-12-24T05:01:25;100781.44;;;4.48;92.61
9335;BME280;4706;41.844;26.082;2022-12-24T05:03:52;100783.63;;;4.51;90.86
9335;BME280;4706;41.844;26.082;2022-12-24T05:06:23;100782.50;;;4.47;90.45
9335;BME280;4706;41.844;26.082;2022-12-24T05:08:49;100765.75;;;4.33;91.74
9335;BME280;4706;41.844;26.082;2022-12-24T05:11:15;100782.88;;;4.56;91.02
9335;BME280;4706;41.844;26.082;2022-12-24T05:13:43;100779.53;;;4.49;91.49
9335;BME280;4706;41.844;26.082;2022-12-24T05:16:09;100775.56;;;4.34;92.33
9335;BME280;4706;41.844;26.082;2022-12-24T05:18:34;100773.97;;;4.17;93.29
9335;BME280;4706;41.844;26.082;2022-12-24T05:21:00;100768.00;;;4.20;93.50
9335;BME280;4706;41.844;26.082;2022-12-24T05:23:25;100771.88;;;4.46;91.72
9335;BME280;4706;41.844;26.082;2022-12-24T05:26:31;100780.13;;;4.07;92.89
9335;BME280;4706;41.844;26.082;2022-12-24T05:28:58;100780.16;;;3.90;94.46
9335;BME280;4706;41.844;26.082;2022-12-24T05:31:26;100780.94;;;4.07;94.25
9335;BME280;4706;41.844;26.082;2022-12-24T05:33:51;100775.38;;;4.19;94.10
9335;BME280;4706;41.844;26.082;2022-12-24T05:36:19;100791.97;;;4.18;95.12
9335;BME280;4706;41.844;26.082;2022-12-24T05:38:45;100791.31;;;4.32;93.64
9335;BME280;4706;41.844;26.082;2022-12-24T05:41:10;100800.00;;;4.29;93.21
9335;BME280;4706;41.844;26.082;2022-12-24T05:43:36;100805.44;;;4.29;93.64
9335;BME280;4706;41.844;26.082;2022-12-24T05:46:04;100793.59;;;4.41;92.96
9335;BME280;4706;41.844;26.082;2022-12-24T05:48:30;100790.88;;;4.41;91.81
9335;BME280;4706;41.844;26.082;2022-12-24T05:50:56;100795.19;;;4.36;92.33
9335;BME280;4706;41.844;26.082;2022-12-24T05:53:22;100792.66;;;4.30;93.18
9335;BME280;4706;41.844;26.082;2022-12-24T05:55:48;100788.56;;;4.32;91.87
9335;BME280;4706;41.844;26.082;2022-12-24T05:58:13;100789.47;;;4.38;90.91
9335;BME280;4706;41.844;26.082;2022-12-24T06:00:40;100781.00;;;4.34;91.91
9335;BME280;4706;41.844;26.082;2022-12-24T06:03:06;100790.28;;;4.17;92.93
9335;BME280;4706;41.844;26.082;2022-12-24T06:05:31;100792.03;;;4.23;92.05
9335;BME280;4706;41.844;26.082;2022-12-24T06:07:57;100803.66;;;4.18;90.88
9335;BME280;4706;41.844;26.082;2022-12-24T06:10:22;100795.75;;;4.17;91.89
9335;BME280;4706;41.844;26.082;2022-12-24T06:12:48;100804.41;;;4.13;91.11
9335;BME280;4706;41.844;26.082;2022-12-24T06:15:13;100794.84;;;3.89;93.43
9335;BME280;4706;41.844;26.082;2022-12-24T06:17:39;100803.97;;;4.00;93.21
9335;BME280;4706;41.844;26.082;2022-12-24T06:20:05;100798.44;;;3.95;94.13
9335;BME280;4706;41.844;26.082;2022-12-24T06:22:31;100807.69;;;3.94;94.69
9335;BME280;4706;41.844;26.082;2022-12-24T06:24:56;100811.06;;;4.01;93.99
9335;BME280;4706;41.844;26.082;2022-12-24T06:27:22;100812.72;;;4.24;91.29
9335;BME280;4706;41.844;26.082;2022-12-24T06:29:47;100816.84;;;4.26;90.61
9335;BME280;4706;41.844;26.082;2022-12-24T06:32:13;100821.91;;;4.18;92.05
9335;BME280;4706;41.844;26.082;2022-12-24T06:34:38;100817.97;;;4.08;92.23
9335;BME280;4706;41.844;26.082;2022-12-24T06:37:04;100812.81;;;3.90;92.93
9335;BME280;4706;41.844;26.082;2022-12-24T06:39:30;100824.28;;;3.92;94.92
9335;BME280;4706;41.844;26.082;2022-12-24T06:41:55;100813.84;;;4.06;93.55
9335;BME280;4706;41.844;26.082;2022-12-24T06:44:21;100826.81;;;4.21;93.61
9335;BME280;4706;41.844;26.082;2022-12-24T06:46:46;100822.31;;;4.09;93.98
9335;BME280;4706;41.844;26.082;2022-12-24T06:49:12;100833.53;;;4.13;95.26
9335;BME280;4706;41.844;26.082;2022-12-24T06:51:37;100829.50;;;4.16;96.04
9335;BME280;4706;41.844;26.082;2022-12-24T06:54:03;100828.41;;;4.17;95.68
9335;BME280;4706;41.844;26.082;2022-12-24T06:56:28;100836.59;;;4.38;94.18
9335;BME280;4706;41.844;26.082;2022-12-24T06:58:54;100837.72;;;4.43;94.35
9335;BME280;4706;41.844;26.082;2022-12-24T07:01:20;100834.69;;;4.39;93.48
9335;BME280;4706;41.844;26.082;2022-12-24T07:03:45;100843.44;;;4.63;92.28
9335;BME280;4706;41.844;26.082;2022-12-24T07:06:24;100853.13;;;4.76;90.86
9335;BME280;4706;41.844;26.082;2022-12-24T07:08:51;100849.38;;;4.82;90.33
9335;BME280;4706;41.844;26.082;2022-12-24T07:11:16;100847.66;;;4.76;91.08
9335;BME280;4706;41.844;26.082;2022-12-24T07:13:42;100849.56;;;4.75;90.63
9335;BME280;4706;41.844;26.082;2022-12-24T07:16:07;100836.53;;;4.55;92.10
9335;BME280;4706;41.844;26.082;2022-12-24T07:18:33;100839.03;;;4.62;91.88
9335;BME280;4706;41.844;26.082;2022-12-24T07:20:59;100833.63;;;4.40;92.58
9335;BME280;4706;41.844;26.082;2022-12-24T07:23:25;100838.09;;;4.51;92.45
9335;BME280;4706;41.844;26.082;2022-12-24T07:25:51;100842.09;;;4.44;92.03
9335;BME280;4706;41.844;26.082;2022-12-24T07:28:16;100847.34;;;4.50;93.16
9335;BME280;4706;41.844;26.082;2022-12-24T07:30:42;100847.94;;;4.52;93.29
9335;BME280;4706;41.844;26.082;2022-12-24T07:33:07;100833.28;;;4.58;93.15
9335;BME280;4706;41.844;26.082;2022-12-24T07:35:33;100837.47;;;4.66;92.79
9335;BME280;4706;41.844;26.082;2022-12-24T07:38:00;100838.56;;;4.92;90.44
9335;BME280;4706;41.844;26.082;2022-12-24T07:40:26;100841.38;;;4.97;89.78
9335;BME280;4706;41.844;26.082;2022-12-24T07:42:51;100838.53;;;4.87;90.44
9335;BME280;4706;41.844;26.082;2022-12-24T07:45:17;100838.78;;;4.85;91.13
9335;BME280;4706;41.844;26.082;2022-12-24T07:47:42;100833.47;;;4.74;92.23
9335;BME280;4706;41.844;26.082;2022-12-24T07:50:08;100839.50;;;4.76;92.48
9335;BME280;4706;41.844;26.082;2022-12-24T07:52:34;100839.34;;;4.87;92.05
9335;BME280;4706;41.844;26.082;2022-12-24T07:54:59;100841.41;;;5.02;90.41
9335;BME280;4706;41.844;26.082;2022-12-24T07:57:24;100838.72;;;5.07;90.06
9335;BME280;4706;41.844;26.082;2022-12-24T07:59:50;100835.63;;;4.99;89.89
9335;BME280;4706;41.844;26.082;2022-12-24T08:02:16;100831.97;;;4.88;91.25
9335;BME280;4706;41.844;26.082;2022-12-24T08:04:41;100827.56;;;4.82;91.52
9335;BME280;4706;41.844;26.082;2022-12-24T08:07:07;100838.78;;;4.85;91.22
9335;BME280;4706;41.844;26.082;2022-12-24T08:09:34;100839.03;;;4.62;92.36
9335;BME280;4706;41.844;26.082;2022-12-24T08:12:00;100844.81;;;4.66;93.41
9335;BME280;4706;41.844;26.082;2022-12-24T08:14:28;100844.34;;;4.74;94.45
9335;BME280;4706;41.844;26.082;2022-12-24T08:16:53;100832.63;;;4.73;95.05
9335;BME280;4706;41.844;26.082;2022-12-24T08:19:19;100832.09;;;4.98;92.66
9335;BME280;4706;41.844;26.082;2022-12-24T08:21:44;100829.25;;;4.88;93.09
9335;BME280;4706;41.844;26.082;2022-12-24T08:24:10;100828.88;;;5.01;91.70
9335;BME280;4706;41.844;26.082;2022-12-24T08:26:35;100835.94;;;5.02;91.31
9335;BME280;4706;41.844;26.082;2022-12-24T08:29:02;100834.50;;;4.95;92.29
9335;BME280;4706;41.844;26.082;2022-12-24T08:31:28;100834.50;;;4.95;92.96
9335;BME280;4706;41.844;26.082;2022-12-24T08:33:54;100836.94;;;4.91;93.93
9335;BME280;4706;41.844;26.082;2022-12-24T08:36:19;100828.47;;;4.93;93.65
9335;BME280;4706;41.844;26.082;2022-12-24T08:38:44;100830.22;;;5.04;92.65
9335;BME280;4706;41.844;26.082;2022-12-24T08:41:10;100823.22;;;5.08;92.26
9335;BME280;4706;41.844;26.082;2022-12-24T08:43:35;100826.03;;;4.91;93.04
9335;BME280;4706;41.844;26.082;2022-12-24T08:46:03;100811.09;;;4.99;92.73
9335;BME280;4706;41.844;26.082;2022-12-24T08:48:29;100810.19;;;4.88;93.12
9335;BME280;4706;41.844;26.082;2022-12-24T08:50:55;100811.28;;;4.87;93.23
9335;BME280;4706;41.844;26.082;2022-12-24T08:53:20;100819.75;;;4.91;94.90
9335;BME280;4706;41.844;26.082;2022-12-24T08:55:46;100817.84;;;4.91;95.40
9335;BME280;4706;41.844;26.082;2022-12-24T08:58:12;100815.13;;;4.91;94.75
9335;BME280;4706;41.844;26.082;2022-12-24T09:00:38;100820.38;;;4.98;96.54
9335;BME280;4706;41.844;26.082;2022-12-24T09:03:04;100819.09;;;5.05;97.15
9335;BME280;4706;41.844;26.082;2022-12-24T09:05:29;100812.06;;;5.15;95.90
9335;BME280;4706;41.844;26.082;2022-12-24T09:07:55;100815.84;;;5.41;94.46
9335;BME280;4706;41.844;26.082;2022-12-24T09:10:21;100804.91;;;5.35;94.36
9335;BME280;4706;41.844;26.082;2022-12-24T09:12:46;100806.03;;;5.40;94.55
9335;BME280;4706;41.844;26.082;2022-12-24T09:15:12;100811.38;;;5.62;93.52
9335;BME280;4706;41.844;26.082;2022-12-24T09:17:38;100811.94;;;5.64;94.13
9335;BME280;4706;41.844;26.082;2022-12-24T09:20:05;100806.28;;;5.75;92.19
9335;BME280;4706;41.844;26.082;2022-12-24T09:22:33;100813.19;;;5.83;91.85
9335;BME280;4706;41.844;26.082;2022-12-24T09:24:59;100812.31;;;5.82;91.92
9335;BME280;4706;41.844;26.082;2022-12-24T09:27:24;100809.69;;;5.93;91.52
9335;BME280;4706;41.844;26.082;2022-12-24T09:29:50;100800.06;;;5.85;91.00
9335;BME280;4706;41.844;26.082;2022-12-24T09:32:15;100800.53;;;5.72;92.51
9335;BME280;4706;41.844;26.082;2022-12-24T09:34:41;100802.13;;;5.68;92.77
9335;BME280;4706;41.844;26.082;2022-12-24T09:37:06;100796.19;;;5.76;93.30
9335;BME280;4706;41.844;26.082;2022-12-24T09:39:32;100780.97;;;5.90;92.07
9335;BME280;4706;41.844;26.082;2022-12-24T09:47:41;100789.28;;;6.05;91.34
9335;BME280;4706;41.844;26.082;2022-12-24T09:50:42;100795.91;;;5.72;92.58
9335;BME280;4706;41.844;26.082;2022-12-24T09:55:58;100788.75;;;6.08;92.20
9335;BME280;4706;41.844;26.082;2022-12-24T09:58:34;100787.13;;;6.13;91.84
9335;BME280;4706;41.844;26.082;2022-12-24T10:01:00;100787.91;;;6.03;92.18
9335;BME280;4706;41.844;26.082;2022-12-24T10:03:26;100784.09;;;6.04;92.26
9335;BME280;4706;41.844;26.082;2022-12-24T10:19:27;100782.25;;;6.20;93.81
9335;BME280;4706;41.844;26.082;2022-12-24T10:24:56;100768.06;;;6.28;92.89
9335;BME280;4706;41.844;26.082;2022-12-24T10:27:29;100775.22;;;6.29;92.93
9335;BME280;4706;41.844;26.082;2022-12-24T10:30:01;100774.84;;;6.10;93.23
9335;BME280;4706;41.844;26.082;2022-12-24T10:32:31;100782.47;;;6.03;94.97
9335;BME280;4706;41.844;26.082;2022-12-24T10:34:59;100776.47;;;6.06;94.47
9335;BME280;4706;41.844;26.082;2022-12-24T10:37:29;100772.25;;;5.88;96.37
9335;BME280;4706;41.844;26.082;2022-12-24T10:39:55;100772.75;;;5.80;99.51
9335;BME280;4706;41.844;26.082;2022-12-24T10:42:25;100775.69;;;6.16;97.43
9335;BME280;4706;41.844;26.082;2022-12-24T10:45:01;100766.13;;;6.13;96.63
9335;BME280;4706;41.844;26.082;2022-12-24T10:47:28;100758.72;;;6.08;97.53
9335;BME280;4706;41.844;26.082;2022-12-24T10:50:04;100754.28;;;5.97;98.68
9335;BME280;4706;41.844;26.082;2022-12-24T10:52:36;100754.00;;;5.94;99.18
9335;BME280;4706;41.844;26.082;2022-12-24T10:57:59;100758.03;;;5.86;100.00
9335;BME280;4706;41.844;26.082;2022-12-24T11:00:26;100748.81;;;5.92;100.00
9335;BME280;4706;41.844;26.082;2022-12-24T11:05:37;100758.44;;;6.05;100.00
9335;BME280;4706;41.844;26.082;2022-12-24T11:10:43;100737.22;;;6.22;100.00
9335;BME280;4706;41.844;26.082;2022-12-24T11:13:43;100747.63;;;6.36;100.00
9335;BME280;4706;41.844;26.082;2022-12-24T11:16:20;100750.91;;;6.32;100.00
9335;BME280;4706;41.844;26.082;2022-12-24T11:18:50;100750.66;;;6.44;99.77
9335;BME280;4706;41.844;26.082;2022-12-24T11:21:31;100744.34;;;6.33;100.00
9335;BME280;4706;41.844;26.082;2022-12-24T11:24:07;100745.25;;;6.54;99.88
9335;BME280;4706;41.844;26.082;2022-12-24T11:26:34;100744.72;;;6.68;99.42
9335;BME280;4706;41.844;26.082;2022-12-24T11:32:29;100742.00;;;6.88;96.04
9335;BME280;4706;41.844;26.082;2022-12-24T11:34:55;100739.25;;;6.78;96.91
9335;BME280;4706;41.844;26.082;2022-12-24T11:37:22;100737.31;;;6.68;98.33
9335;BME280;4706;41.844;26.082;2022-12-24T11:39:51;100734.56;;;6.58;99.01
9335;BME280;4706;41.844;26.082;2022-12-24T11:42:35;100737.59;;;6.51;99.72
9335;BME280;4706;41.844;26.082;2022-12-24T11:45:06;100744.47;;;6.74;98.86
9335;BME280;4706;41.844;26.082;2022-12-24T11:52:46;100738.97;;;6.69;99.35
9335;BME280;4706;41.844;26.082;2022-12-24T11:55:20;100717.94;;;6.70;98.53
9335;BME280;4706;41.844;26.082;2022-12-24T11:57:54;100737.06;;;6.70;99.63
9335;BME280;4706;41.844;26.082;2022-12-24T12:00:20;100744.75;;;6.78;100.00
9335;BME280;4706;41.844;26.082;2022-12-24T12:02:47;100745.28;;;6.90;100.00
9335;BME280;4706;41.844;26.082;2022-12-24T12:05:20;100740.91;;;6.99;99.63
9335;BME280;4706;41.844;26.082;2022-12-24T12:07:54;100734.91;;;7.18;97.88
9335;BME280;4706;41.844;26.082;2022-12-24T12:10:24;100730.53;;;7.06;97.20
9335;BME280;4706;41.844;26.082;2022-12-24T12:13:00;100736.53;;;6.83;99.11
9335;BME280;4706;41.844;26.082;2022-12-24T12:15:32;100719.31;;;6.82;99.30
9335;BME280;4706;41.844;26.082;2022-12-24T12:18:15;100720.13;;;6.83;100.00
9335;BME280;4706;41.844;26.082;2022-12-24T12:21:01;100724.25;;;6.96;100.00
9335;BME280;4706;41.844;26.082;2022-12-24T12:23:39;100716.84;;;7.01;100.00
9335;BME280;4706;41.844;26.082;2022-12-24T12:26:19;100709.72;;;7.21;98.90
9335;BME280;4706;41.844;26.082;2022-12-24T12:31:40;100719.31;;;7.13;100.00
9335;BME280;4706;41.844;26.082;2022-12-24T12:37:29;100704.25;;;7.41;98.56
9335;BME280;4706;41.844;26.082;2022-12-24T12:39:57;100660.75;;;7.45;98.84
9335;BME280;4706;41.844;26.082;2022-12-24T12:42:29;100685.59;;;7.59;97.85
9335;BME280;4706;41.844;26.082;2022-12-24T12:45:22;100694.59;;;7.69;96.70
9335;BME280;4706;41.844;26.082;2022-12-24T12:50:28;100701.09;;;7.89;96.77
9335;BME280;4706;41.844;26.082;2022-12-24T12:56:51;100702.72;;;7.95;97.33
9335;BME280;4706;41.844;26.082;2022-12-24T12:59:00;100696.38;;;8.04;96.81
9335;BME280;4706;41.844;26.082;2022-12-24T13:21:14;100676.28;;;8.19;96.59
9335;BME280;4706;41.844;26.082;2022-12-24T13:23:41;100682.97;;;8.03;98.70
9335;BME280;4706;41.844;26.082;2022-12-24T13:26:11;100692.88;;;7.94;99.23
9335;BME280;4706;41.844;26.082;2022-12-24T13:28:37;100602.16;;;7.41;99.67
9335;BME280;4706;41.844;26.082;2022-12-24T13:33:45;100677.28;;;7.84;100.00
9335;BME280;4706;41.844;26.082;2022-12-24T13:36:15;100684.44;;;7.80;100.00
9335;BME280;4706;41.844;26.082;2022-12-24T13:38:52;100692.63;;;7.85;100.00
9335;BME280;4706;41.844;26.082;2022-12-24T13:47:02;100688.78;;;7.91;100.00
9335;BME280;4706;41.844;26.082;2022-12-24T13:54:37;100698.97;;;7.70;100.00
9335;BME280;4706;41.844;26.082;2022-12-24T13:57:30;100693.22;;;7.67;100.00
9335;BME280;4706;41.844;26.082;2022-12-24T14:02:33;100681.97;;;7.78;100.00
9335;BME280;4706;41.844;26.082;2022-12-24T14:05:03;100673.38;;;8.06;100.00
9335;BME280;4706;41.844;26.082;2022-12-24T14:07:30;100677.97;;;8.20;100.00
9335;BME280;4706;41.844;26.082;2022-12-24T14:09:57;100680.19;;;8.13;100.00
9335;BME280;4706;41.844;26.082;2022-12-24T14:12:47;100682.38;;;8.11;100.00
9335;BME280;4706;41.844;26.082;2022-12-24T14:15:44;100696.31;;;8.20;98.71
9335;BME280;4706;41.844;26.082;2022-12-24T14:18:16;100695.47;;;8.19;99.62
9335;BME280;4706;41.844;26.082;2022-12-24T14:20:42;100701.81;;;8.15;99.70
9335;BME280;4706;41.844;26.082;2022-12-24T14:23:55;100708.44;;;8.03;100.00
9335;BME280;4706;41.844;26.082;2022-12-24T14:26:24;100707.28;;;8.20;99.28
9335;BME280;4706;41.844;26.082;2022-12-24T14:29:02;100697.97;;;8.16;99.83
9335;BME280;4706;41.844;26.082;2022-12-24T14:31:29;100707.25;;;8.25;99.99
9335;BME280;4706;41.844;26.082;2022-12-24T14:34:06;100699.63;;;8.17;100.00
9335;BME280;4706;41.844;26.082;2022-12-24T14:36:32;100699.88;;;8.15;100.00
9335;BME280;4706;41.844;26.082;2022-12-24T14:39:00;100694.97;;;8.12;100.00
9335;BME280;4706;41.844;26.082;2022-12-24T14:44:09;100682.75;;;7.89;100.00
9335;BME280;4706;41.844;26.082;2022-12-24T14:46:49;100692.03;;;7.98;100.00
9335;BME280;4706;41.844;26.082;2022-12-24T14:54:45;100692.56;;;8.06;100.00
9335;BME280;4706;41.844;26.082;2022-12-24T14:57:17;100699.38;;;8.08;100.00
9335;BME280;4706;41.844;26.082;2022-12-24T15:00:03;100705.47;;;7.90;100.00
9335;BME280;4706;41.844;26.082;2022-12-24T15:02:45;100693.19;;;7.77;100.00
9335;BME280;4706;41.844;26.082;2022-12-24T15:05:25;100714.56;;;7.80;100.00
9335;BME280;4706;41.844;26.082;2022-12-24T15:10:28;100713.69;;;7.90;100.00
9335;BME280;4706;41.844;26.082;2022-12-24T15:12:57;100708.50;;;7.88;100.00
9335;BME280;4706;41.844;26.082;2022-12-24T15:15:25;100711.78;;;7.90;100.00
9335;BME280;4706;41.844;26.082;2022-12-24T15:17:51;100715.59;;;7.94;100.00
9335;BME280;4706;41.844;26.082;2022-12-24T15:20:20;100721.06;;;7.99;100.00
9335;BME280;4706;41.844;26.082;2022-12-24T15:22:49;100719.13;;;8.00;100.00
9335;BME280;4706;41.844;26.082;2022-12-24T15:25:38;100722.13;;;8.03;100.00